createdAt,value
2018-10-04T00:01:57.001Z,100.00
2018-10-04T00:04:26.463Z,100.00
2018-10-04T00:06:55.784Z,100.00
2018-10-04T00:09:24.640Z,100.00
2018-10-04T00:11:53.371Z,100.00
2018-10-04T00:14:22.029Z,100.00
2018-10-04T00:16:50.831Z,100.00
2018-10-04T00:19:19.610Z,100.00
2018-10-04T00:21:49.071Z,100.00
2018-10-04T00:24:17.812Z,100.00
2018-10-04T00:26:46.735Z,100.00
2018-10-04T00:29:15.502Z,100.00
2018-10-04T00:31:44.707Z,100.00
2018-10-04T00:34:13.618Z,100.00
2018-10-04T00:36:43.016Z,100.00
2018-10-04T00:39:12.575Z,100.00
2018-10-04T00:41:41.388Z,100.00
2018-10-04T00:44:10.189Z,100.00
2018-10-04T00:46:39.002Z,100.00
2018-10-04T00:49:09.275Z,100.00
2018-10-04T00:51:38.015Z,100.00
2018-10-04T00:54:06.814Z,100.00
2018-10-04T00:56:35.516Z,100.00
2018-10-04T00:59:04.787Z,100.00
2018-10-04T01:01:34.365Z,100.00
2018-10-04T01:04:03.068Z,100.00
2018-10-04T01:06:31.907Z,100.00
2018-10-04T01:09:01.722Z,100.00
2018-10-04T01:11:30.923Z,100.00
2018-10-04T01:13:59.815Z,100.00
2018-10-04T01:16:28.551Z,100.00
2018-10-04T01:18:58.456Z,100.00
2018-10-04T01:21:27.216Z,100.00
2018-10-04T01:23:56.211Z,100.00
2018-10-04T01:26:25.622Z,100.00
2018-10-04T01:28:55.132Z,100.00
2018-10-04T01:31:24.068Z,100.00
2018-10-04T01:33:52.850Z,100.00
2018-10-04T01:36:22.833Z,100.00
2018-10-04T01:38:51.641Z,100.00
2018-10-04T01:41:20.348Z,100.00
2018-10-04T01:43:49.989Z,100.00
2018-10-04T01:46:19.259Z,100.00
2018-10-04T01:48:48.050Z,100.00
2018-10-04T01:51:16.789Z,100.00
2018-10-04T01:53:45.355Z,100.00
2018-10-04T01:56:13.946Z,100.00
2018-10-04T01:58:42.571Z,100.00
2018-10-04T02:01:11.241Z,100.00
2018-10-04T02:03:40.461Z,100.00
2018-10-04T02:06:08.987Z,100.00
2018-10-04T02:08:37.563Z,100.00
2018-10-04T02:11:06.657Z,100.00
2018-10-04T02:13:35.389Z,100.00
2018-10-04T02:16:03.987Z,100.00
2018-10-04T02:18:32.534Z,100.00
2018-10-04T02:21:01.138Z,100.00
2018-10-04T02:23:29.704Z,100.00
2018-10-04T02:25:58.637Z,100.00
2018-10-04T02:28:27.278Z,100.00
2018-10-04T02:30:55.888Z,100.00
2018-10-04T02:33:24.580Z,100.00
2018-10-04T02:35:53.246Z,100.00
2018-10-04T02:38:21.886Z,100.00
2018-10-04T02:40:50.590Z,100.00
2018-10-04T02:43:19.122Z,100.00
2018-10-04T02:45:47.873Z,100.00
2018-10-04T02:48:16.426Z,100.00
2018-10-04T02:50:45.040Z,100.00
2018-10-04T02:53:13.846Z,100.00
2018-10-04T02:55:47.661Z,100.00
2018-10-04T02:58:16.191Z,100.00
2018-10-04T03:00:44.821Z,100.00
2018-10-04T03:03:13.367Z,100.00
2018-10-04T03:05:41.950Z,100.00
2018-10-04T03:08:10.521Z,100.00
2018-10-04T03:10:39.111Z,100.00
2018-10-04T03:13:08.254Z,100.00
2018-10-04T03:15:36.816Z,100.00
2018-10-04T03:18:05.360Z,100.00
2018-10-04T03:20:33.913Z,100.00
2018-10-04T03:23:02.480Z,100.00
2018-10-04T03:25:31.801Z,100.00
2018-10-04T03:28:00.525Z,100.00
2018-10-04T03:30:29.056Z,100.00
2018-10-04T03:32:57.640Z,100.00
2018-10-04T03:35:26.302Z,100.00
2018-10-04T03:37:55.114Z,100.00
2018-10-04T03:40:23.652Z,100.00
2018-10-04T03:42:52.252Z,100.00
2018-10-04T03:45:20.738Z,100.00
2018-10-04T03:47:49.272Z,100.00
2018-10-04T03:50:17.830Z,100.00
2018-10-04T03:52:46.511Z,100.00
2018-10-04T03:55:15.046Z,100.00
2018-10-04T03:57:43.717Z,100.00
2018-10-04T04:00:12.320Z,100.00
2018-10-04T04:02:40.903Z,100.00
2018-10-04T04:05:09.609Z,100.00
2018-10-04T04:07:38.169Z,100.00
2018-10-04T04:10:06.882Z,100.00
2018-10-04T04:12:35.501Z,100.00
2018-10-04T04:15:04.090Z,100.00
2018-10-04T04:17:32.694Z,100.00
2018-10-04T04:20:01.231Z,100.00
2018-10-04T04:22:29.854Z,100.00
2018-10-04T04:24:58.579Z,100.00
2018-10-04T04:27:27.133Z,100.00
2018-10-04T04:29:55.663Z,100.00
2018-10-04T04:32:24.276Z,100.00
2018-10-04T04:34:53.100Z,100.00
2018-10-04T04:37:21.614Z,100.00
2018-10-04T04:39:51.146Z,100.00
2018-10-04T04:42:20.732Z,100.00
2018-10-04T04:44:49.260Z,100.00
2018-10-04T04:47:17.780Z,100.00
2018-10-04T04:49:46.367Z,100.00
2018-10-04T04:52:14.869Z,100.00
2018-10-04T04:55:46.579Z,100.00
2018-10-04T04:58:16.473Z,100.00
2018-10-04T05:00:46.702Z,100.00
2018-10-04T05:03:16.234Z,100.00
2018-10-04T05:05:44.805Z,100.00
2018-10-04T05:08:14.532Z,100.00
2018-10-04T05:10:43.148Z,100.00
2018-10-04T05:13:11.718Z,100.00
2018-10-04T05:15:40.277Z,100.00
2018-10-04T05:18:08.974Z,100.00
2018-10-04T05:20:37.658Z,100.00
2018-10-04T05:23:06.235Z,100.00
2018-10-04T05:25:34.897Z,100.00
2018-10-04T05:28:03.443Z,100.00
2018-10-04T05:30:32.020Z,100.00
2018-10-04T05:33:00.592Z,100.00
2018-10-04T05:35:29.282Z,100.00
2018-10-04T05:37:57.898Z,100.00
2018-10-04T05:40:26.422Z,100.00
2018-10-04T05:42:55.457Z,100.00
2018-10-04T05:45:24.144Z,100.00
2018-10-04T05:47:52.779Z,100.00
2018-10-04T05:50:21.326Z,100.00
2018-10-04T05:52:50.171Z,100.00
2018-10-04T05:55:18.746Z,100.00
2018-10-04T05:57:47.293Z,100.00
2018-10-04T06:00:33.706Z,100.00
2018-10-04T06:03:02.685Z,100.00
2018-10-04T06:05:31.558Z,100.00
2018-10-04T06:08:00.583Z,100.00
2018-10-04T06:10:29.618Z,100.00
2018-10-04T06:12:58.901Z,100.00
2018-10-04T06:15:27.695Z,100.00
2018-10-04T06:17:57.326Z,100.00
2018-10-04T06:20:27.197Z,100.00
2018-10-04T06:22:56.000Z,100.00
2018-10-04T06:25:25.820Z,100.00
2018-10-04T06:27:54.409Z,100.00
2018-10-04T06:30:23.050Z,100.00
2018-10-04T06:32:51.577Z,100.00
2018-10-04T06:35:20.360Z,100.00
2018-10-04T06:37:49.186Z,100.00
2018-10-04T06:40:17.957Z,100.00
2018-10-04T06:42:46.637Z,100.00
2018-10-04T06:45:16.039Z,100.00
2018-10-04T06:47:44.713Z,100.00
2018-10-04T06:50:13.993Z,100.00
2018-10-04T06:52:42.552Z,100.00
2018-10-04T06:55:11.123Z,100.00
2018-10-04T06:57:39.841Z,100.00
2018-10-04T07:00:08.474Z,99.25
2018-10-04T07:02:37.266Z,99.18
2018-10-04T07:05:05.996Z,98.80
2018-10-04T07:07:34.584Z,98.22
2018-10-04T07:10:03.094Z,97.86
2018-10-04T07:12:31.648Z,97.82
2018-10-04T07:15:00.293Z,97.90
2018-10-04T07:17:28.867Z,97.21
2018-10-04T07:19:58.555Z,97.31
2018-10-04T07:22:27.335Z,97.12
2018-10-04T07:24:58.747Z,96.62
2018-10-04T07:27:27.347Z,95.38
2018-10-04T07:29:55.964Z,94.83
2018-10-04T07:32:24.547Z,93.69
2018-10-04T07:34:53.207Z,93.67
2018-10-04T07:37:21.869Z,92.27
2018-10-04T07:39:50.531Z,92.49
2018-10-04T07:42:19.415Z,92.13
2018-10-04T07:44:47.827Z,91.47
2018-10-04T07:47:16.949Z,91.89
2018-10-04T07:49:45.775Z,91.68
2018-10-04T07:52:14.431Z,90.73
2018-10-04T07:54:42.917Z,91.61
2018-10-04T07:57:11.424Z,90.56
2018-10-04T07:59:40.039Z,89.34
2018-10-04T08:02:08.651Z,89.90
2018-10-04T08:04:38.067Z,89.70
2018-10-04T08:07:06.761Z,89.79
2018-10-04T08:09:35.679Z,90.07
2018-10-04T08:12:04.152Z,89.26
2018-10-04T08:14:32.902Z,88.74
2018-10-04T08:17:01.521Z,87.45
2018-10-04T08:19:30.005Z,87.56
2018-10-04T08:21:58.547Z,87.27
2018-10-04T08:24:27.085Z,86.86
2018-10-04T08:26:56.629Z,85.68
2018-10-04T08:29:25.267Z,85.23
2018-10-04T08:31:53.817Z,85.42
2018-10-04T08:34:22.503Z,86.94
2018-10-04T08:36:51.194Z,86.25
2018-10-04T08:39:19.861Z,85.13
2018-10-04T08:41:49.872Z,84.43
2018-10-04T08:44:18.449Z,85.26
2018-10-04T08:46:47.203Z,83.90
2018-10-04T08:49:15.831Z,83.93
2018-10-04T08:51:51.405Z,81.34
2018-10-04T08:54:25.565Z,80.96
2018-10-04T08:56:54.970Z,81.21
2018-10-04T08:59:24.087Z,78.43
2018-10-04T09:01:52.880Z,81.28
2018-10-04T09:04:22.524Z,77.96
2018-10-04T09:06:51.266Z,79.45
2018-10-04T09:09:20.162Z,78.05
2018-10-04T09:11:48.756Z,77.36
2018-10-04T09:14:18.315Z,76.65
2018-10-04T09:16:46.915Z,76.79
2018-10-04T09:19:15.555Z,74.48
2018-10-04T09:21:44.149Z,76.04
2018-10-04T09:24:12.673Z,76.30
2018-10-04T09:26:41.534Z,75.85
2018-10-04T09:29:12.209Z,76.23
2018-10-04T09:31:44.807Z,73.38
2018-10-04T09:34:13.360Z,74.82
2018-10-04T09:36:41.918Z,74.86
2018-10-04T09:39:11.893Z,74.61
2018-10-04T09:41:40.598Z,71.37
2018-10-04T09:44:09.158Z,70.51
2018-10-04T09:46:37.628Z,72.20
2018-10-04T09:49:06.605Z,71.54
2018-10-04T09:51:40.470Z,70.91
2018-10-04T09:54:09.232Z,70.04
2018-10-04T09:56:44.101Z,70.36
2018-10-04T09:59:12.613Z,69.82
2018-10-04T10:01:46.666Z,69.78
2018-10-04T10:04:15.481Z,70.00
2018-10-04T10:06:44.193Z,69.35
2018-10-04T10:09:12.818Z,68.58
2018-10-04T10:11:41.480Z,69.06
2018-10-04T10:14:10.226Z,68.53
2018-10-04T10:16:38.919Z,68.11
2018-10-04T10:19:07.952Z,67.64
2018-10-04T10:21:36.638Z,65.84
2018-10-04T10:24:05.231Z,67.27
2018-10-04T10:26:33.802Z,68.71
2018-10-04T10:29:02.429Z,67.43
2018-10-04T10:31:30.986Z,68.13
2018-10-04T10:34:00.790Z,67.64
2018-10-04T10:36:30.597Z,67.46
2018-10-04T10:38:59.261Z,68.88
2018-10-04T10:41:27.970Z,69.32
2018-10-04T10:43:56.447Z,69.12
2018-10-04T10:46:25.607Z,67.64
2018-10-04T10:48:54.394Z,69.04
2018-10-04T10:51:23.110Z,68.04
2018-10-04T10:53:51.656Z,67.25
2018-10-04T10:56:20.291Z,67.86
2018-10-04T10:58:49.286Z,68.22
2018-10-04T11:01:17.951Z,66.78
2018-10-04T11:03:46.567Z,66.35
2018-10-04T11:06:15.266Z,65.63
2018-10-04T11:08:43.872Z,66.69
2018-10-04T11:11:13.549Z,65.14
2018-10-04T11:13:42.714Z,66.28
2018-10-04T11:16:12.994Z,63.97
2018-10-04T11:18:41.633Z,64.83
2018-10-04T11:21:10.209Z,65.35
2018-10-04T11:23:38.746Z,65.75
2018-10-04T11:26:07.467Z,66.80
2018-10-04T11:28:36.097Z,66.68
2018-10-04T11:31:04.895Z,65.62
2018-10-04T11:33:33.472Z,66.80
2018-10-04T11:36:02.209Z,64.25
2018-10-04T11:38:30.765Z,65.50
2018-10-04T11:40:59.387Z,63.03
2018-10-04T11:43:28.510Z,64.02
2018-10-04T11:45:58.417Z,64.74
2018-10-04T11:48:29.278Z,64.89
2018-10-04T11:50:57.906Z,63.40
2018-10-04T11:53:26.543Z,63.27
2018-10-04T11:55:55.247Z,62.51
2018-10-04T11:58:23.927Z,61.79
2018-10-04T12:00:52.626Z,62.10
2018-10-04T12:03:21.246Z,56.58
2018-10-04T12:05:49.823Z,55.75
2018-10-04T12:08:18.490Z,57.29
2018-10-04T12:10:49.075Z,57.83
2018-10-04T12:13:19.852Z,58.37
2018-10-04T12:15:48.602Z,59.22
2018-10-04T12:18:17.352Z,57.90
2018-10-04T12:20:45.961Z,56.91
2018-10-04T12:23:16.425Z,58.09
2018-10-04T12:25:45.028Z,58.08
2018-10-04T12:28:13.607Z,57.84
2018-10-04T12:30:42.585Z,57.28
2018-10-04T12:33:11.310Z,57.79
2018-10-04T12:35:40.914Z,59.31
2018-10-04T12:38:09.498Z,60.58
2018-10-04T12:40:38.046Z,61.41
2018-10-04T12:43:06.709Z,61.88
2018-10-04T12:45:35.272Z,61.75
2018-10-04T12:48:03.971Z,62.36
2018-10-04T12:50:32.555Z,60.96
2018-10-04T12:53:01.188Z,61.56
2018-10-04T12:55:29.882Z,60.68
2018-10-04T12:57:58.531Z,60.59
2018-10-04T13:00:27.115Z,60.26
2018-10-04T13:02:55.746Z,60.96
2018-10-04T13:05:25.639Z,61.52
2018-10-04T13:07:54.286Z,62.31
2018-10-04T13:10:23.003Z,61.82
2018-10-04T13:12:51.727Z,62.54
2018-10-04T13:15:20.444Z,63.11
2018-10-04T13:17:49.149Z,64.09
2018-10-04T13:20:17.882Z,63.66
2018-10-04T13:22:46.636Z,64.23
2018-10-04T13:25:15.227Z,64.59
2018-10-04T13:27:45.383Z,64.33
2018-10-04T13:30:15.014Z,63.97
2018-10-04T13:32:43.737Z,62.59
2018-10-04T13:35:12.313Z,62.76
2018-10-04T13:37:40.782Z,62.50
2018-10-04T13:40:10.411Z,62.69
2018-10-04T13:42:39.013Z,63.12
2018-10-04T13:45:07.767Z,63.34
2018-10-04T13:47:37.226Z,63.47
2018-10-04T13:50:05.786Z,63.17
2018-10-04T13:52:34.518Z,62.89
2018-10-04T13:55:02.984Z,62.75
2018-10-04T13:57:31.543Z,63.23
2018-10-04T14:00:00.374Z,63.81
2018-10-04T14:02:29.007Z,63.58
2018-10-04T14:04:58.511Z,60.51
2018-10-04T14:07:28.004Z,59.59
2018-10-04T14:09:56.577Z,59.40
2018-10-04T14:12:25.276Z,58.50
2018-10-04T14:14:55.831Z,55.39
2018-10-04T14:17:24.551Z,55.09
2018-10-04T14:19:53.141Z,55.76
2018-10-04T14:22:21.750Z,55.29
2018-10-04T14:24:50.448Z,56.25
2018-10-04T14:27:19.099Z,58.15
2018-10-04T14:29:47.943Z,57.44
2018-10-04T14:32:16.533Z,59.43
2018-10-04T14:34:45.335Z,59.06
2018-10-04T14:37:13.961Z,59.98
2018-10-04T14:39:42.741Z,61.20
2018-10-04T14:42:11.321Z,60.13
2018-10-04T14:44:39.914Z,60.75
2018-10-04T14:47:08.686Z,61.00
2018-10-04T14:49:37.241Z,60.61
2018-10-04T14:52:05.927Z,60.54
2018-10-04T14:54:34.555Z,60.34
2018-10-04T14:57:03.257Z,60.29
2018-10-04T14:59:31.814Z,59.55
2018-10-04T15:02:00.490Z,57.17
2018-10-04T15:04:29.000Z,56.17
2018-10-04T15:06:57.651Z,55.56
2018-10-04T15:09:26.259Z,56.42
2018-10-04T15:11:54.807Z,56.57
2018-10-04T15:14:23.543Z,57.29
2018-10-04T15:16:52.149Z,56.83
2018-10-04T15:19:20.619Z,57.55
2018-10-04T15:21:49.306Z,58.34
2018-10-04T15:24:18.390Z,58.69
2018-10-04T15:26:46.948Z,58.96
2018-10-04T15:29:15.754Z,59.45
2018-10-04T15:31:44.456Z,60.63
2018-10-04T15:34:13.002Z,61.40
2018-10-04T15:36:41.762Z,61.68
2018-10-04T15:39:11.065Z,61.20
2018-10-04T15:41:40.075Z,61.50
2018-10-04T15:44:09.253Z,61.40
2018-10-04T15:46:37.868Z,61.64
2018-10-04T15:49:06.550Z,61.75
2018-10-04T15:51:35.072Z,62.10
2018-10-04T15:54:03.727Z,62.47
2018-10-04T15:56:32.927Z,63.31
2018-10-04T15:59:01.482Z,63.80
2018-10-04T16:01:30.276Z,63.52
2018-10-04T16:03:59.883Z,63.37
2018-10-04T16:06:28.494Z,63.53
2018-10-04T16:08:57.043Z,64.41
2018-10-04T16:11:25.732Z,64.24
2018-10-04T16:13:54.403Z,64.80
2018-10-04T16:16:23.627Z,64.64
2018-10-04T16:18:52.174Z,65.02
2018-10-04T16:21:20.660Z,65.25
2018-10-04T16:23:49.764Z,65.45
2018-10-04T16:26:18.412Z,65.78
2018-10-04T16:28:46.938Z,65.80
2018-10-04T16:31:15.671Z,66.25
2018-10-04T16:33:44.299Z,66.90
2018-10-04T16:36:12.854Z,67.13
2018-10-04T16:38:42.184Z,67.07
2018-10-04T16:41:10.665Z,67.35
2018-10-04T16:43:39.271Z,68.05
2018-10-04T16:46:07.790Z,67.48
2018-10-04T16:48:37.067Z,67.55
2018-10-04T16:51:05.728Z,68.21
2018-10-04T16:53:34.248Z,68.23
2018-10-04T16:56:03.179Z,68.42
2018-10-04T16:58:31.968Z,68.21
2018-10-04T17:01:00.816Z,68.25
2018-10-04T17:03:29.413Z,67.90
2018-10-04T17:05:58.364Z,68.08
2018-10-04T17:08:27.259Z,68.46
2018-10-04T17:10:55.796Z,68.78
2018-10-04T17:13:24.362Z,69.05
2018-10-04T17:15:53.020Z,69.30
2018-10-04T17:18:21.689Z,69.14
2018-10-04T17:20:50.405Z,69.51
2018-10-04T17:23:19.026Z,69.21
2018-10-04T17:25:48.258Z,68.94
2018-10-04T17:28:16.977Z,68.93
2018-10-04T17:30:45.606Z,69.00
2018-10-04T17:33:14.185Z,69.08
2018-10-04T17:35:42.748Z,69.08
2018-10-04T17:38:11.288Z,69.65
2018-10-04T17:40:40.108Z,70.20
2018-10-04T17:43:08.810Z,70.43
2018-10-04T17:45:37.485Z,70.47
2018-10-04T17:48:06.242Z,70.76
2018-10-04T17:50:34.901Z,71.16
2018-10-04T17:53:04.030Z,71.17
2018-10-04T17:55:32.661Z,71.95
2018-10-04T17:58:01.226Z,71.58
2018-10-04T18:00:31.043Z,72.22
2018-10-04T18:03:00.548Z,72.33
2018-10-04T18:05:31.108Z,72.28
2018-10-04T18:07:59.909Z,72.06
2018-10-04T18:10:28.577Z,72.32
2018-10-04T18:12:57.309Z,72.49
2018-10-04T18:15:25.816Z,71.90
2018-10-04T18:17:54.373Z,71.97
2018-10-04T18:20:24.167Z,72.42
2018-10-04T18:22:52.836Z,72.63
2018-10-04T18:25:21.559Z,72.46
2018-10-04T18:27:50.390Z,72.84
2018-10-04T18:30:19.967Z,73.21
2018-10-04T18:32:48.714Z,73.15
2018-10-04T18:35:17.246Z,73.64
2018-10-04T18:37:48.785Z,74.00
2018-10-04T18:40:18.506Z,74.31
2018-10-04T18:42:47.154Z,74.36
2018-10-04T18:45:15.733Z,74.49
2018-10-04T18:47:44.260Z,74.32
2018-10-04T18:50:12.950Z,74.35
2018-10-04T18:52:41.897Z,74.88
2018-10-04T18:55:10.433Z,74.68
2018-10-04T18:57:39.515Z,74.76
2018-10-04T19:00:08.745Z,75.11
2018-10-04T19:02:37.498Z,74.90
2018-10-04T19:05:06.073Z,74.92
2018-10-04T19:07:34.881Z,74.67
2018-10-04T19:10:03.481Z,75.18
2018-10-04T19:12:32.107Z,74.86
2018-10-04T19:15:00.783Z,75.18
2018-10-04T19:17:29.417Z,74.62
2018-10-04T19:19:58.132Z,74.78
2018-10-04T19:22:26.886Z,75.00
2018-10-04T19:24:55.438Z,74.64
2018-10-04T19:27:24.243Z,74.98
2018-10-04T19:29:52.927Z,74.47
2018-10-04T19:32:21.620Z,75.18
2018-10-04T19:34:50.323Z,75.20
2018-10-04T19:37:18.855Z,75.27
2018-10-04T19:39:47.424Z,75.38
2018-10-04T19:42:15.922Z,75.15
2018-10-04T19:44:44.529Z,75.28
2018-10-04T19:47:13.105Z,75.38
2018-10-04T19:49:41.744Z,75.44
2018-10-04T19:52:10.855Z,76.09
2018-10-04T19:54:39.518Z,75.56
2018-10-04T19:57:08.328Z,75.77
2018-10-04T19:59:36.988Z,75.71
2018-10-04T20:02:05.654Z,75.83
2018-10-04T20:04:34.193Z,75.99
2018-10-04T20:07:02.925Z,75.77
2018-10-04T20:09:31.604Z,75.84
2018-10-04T20:12:00.391Z,76.05
2018-10-04T20:14:29.046Z,76.39
2018-10-04T20:16:57.722Z,76.34
2018-10-04T20:19:26.348Z,76.88
2018-10-04T20:21:55.102Z,77.08
2018-10-04T20:24:24.164Z,77.72
2018-10-04T20:26:52.714Z,77.86
2018-10-04T20:29:21.310Z,78.72
2018-10-04T20:31:49.983Z,78.77
2018-10-04T20:34:18.439Z,79.58
2018-10-04T20:36:47.062Z,79.28
2018-10-04T20:39:15.784Z,79.68
2018-10-04T20:41:44.332Z,80.05
2018-10-04T20:44:12.887Z,80.96
2018-10-04T20:46:41.930Z,81.23
2018-10-04T20:49:10.624Z,81.75
2018-10-04T20:51:39.406Z,82.24
2018-10-04T20:54:08.184Z,82.63
2018-10-04T20:56:36.739Z,83.07
2018-10-04T20:59:05.277Z,83.06
2018-10-04T21:01:33.851Z,83.91
2018-10-04T21:04:02.558Z,83.69
2018-10-04T21:06:31.335Z,84.75
2018-10-04T21:08:59.822Z,84.34
2018-10-04T21:11:28.468Z,85.31
2018-10-04T21:13:57.230Z,84.94
2018-10-04T21:16:26.622Z,85.30
2018-10-04T21:18:55.413Z,85.79
2018-10-04T21:21:24.120Z,85.58
2018-10-04T21:23:53.525Z,86.37
2018-10-04T21:26:22.090Z,86.14
2018-10-04T21:28:50.651Z,86.50
2018-10-04T21:31:19.365Z,87.02
2018-10-04T21:33:48.032Z,87.41
2018-10-04T21:36:16.981Z,88.06
2018-10-04T21:38:50.780Z,88.52
2018-10-04T21:41:19.913Z,89.10
2018-10-04T21:43:48.480Z,88.99
2018-10-04T21:46:17.078Z,88.93
2018-10-04T21:48:45.709Z,89.17
2018-10-04T21:51:14.386Z,89.54
2018-10-04T21:53:43.070Z,89.06
2018-10-04T21:56:11.768Z,89.40
2018-10-04T21:58:40.244Z,89.63
2018-10-04T22:01:08.916Z,90.12
2018-10-04T22:03:37.437Z,89.99
2018-10-04T22:06:06.071Z,89.92
2018-10-04T22:08:34.645Z,90.15
2018-10-04T22:11:03.252Z,90.32
2018-10-04T22:13:33.065Z,90.65
2018-10-04T22:16:02.703Z,90.65
2018-10-04T22:18:31.255Z,91.19
2018-10-04T22:20:59.787Z,91.33
2018-10-04T22:23:28.369Z,91.25
2018-10-04T22:25:56.926Z,91.03
2018-10-04T22:28:25.600Z,92.01
2018-10-04T22:30:54.398Z,91.34
2018-10-04T22:33:22.991Z,90.88
2018-10-04T22:35:52.003Z,91.71
2018-10-04T22:38:20.624Z,92.26
2018-10-04T22:40:49.768Z,92.53
2018-10-04T22:43:18.322Z,92.57
2018-10-04T22:45:46.908Z,93.33
2018-10-04T22:48:15.511Z,94.04
2018-10-04T22:50:44.177Z,94.80
2018-10-04T22:53:12.667Z,94.62
2018-10-04T22:55:41.250Z,95.02
2018-10-04T22:58:09.748Z,95.21
2018-10-04T23:00:38.350Z,95.19
2018-10-04T23:03:07.155Z,95.67
2018-10-04T23:05:35.698Z,95.31
2018-10-04T23:08:04.231Z,95.89
2018-10-04T23:10:32.886Z,95.89
2018-10-04T23:13:01.467Z,96.17
2018-10-04T23:15:30.069Z,96.07
2018-10-04T23:17:58.692Z,95.73
2018-10-04T23:20:27.426Z,94.50
2018-10-04T23:22:56.787Z,93.29
2018-10-04T23:25:25.446Z,92.62
2018-10-04T23:27:54.947Z,92.18
2018-10-04T23:30:23.426Z,93.22
2018-10-04T23:32:52.000Z,94.60
2018-10-04T23:35:21.518Z,96.10
2018-10-04T23:37:50.053Z,96.80
2018-10-04T23:40:18.659Z,96.63
2018-10-04T23:42:47.237Z,96.74
2018-10-04T23:45:15.750Z,96.81
2018-10-04T23:47:44.410Z,97.34
2018-10-04T23:50:13.039Z,97.79
2018-10-04T23:52:41.590Z,97.02
2018-10-04T23:55:10.201Z,96.87
2018-10-04T23:57:38.780Z,96.83
